Time;durP1;ratioP1;P1;durP2;ratioP2;P2;SDS_P1;SDS_P2;PMS_P1;PMS_P2;Temp;Humidity;BMP_temperature;BMP_pressure;BME280_temperature;BME280_humidity;BME280_pressure;Samples;Min_cycle;Max_cycle;Signal;HPM_P1;HPM_P2
2022/06/17 00:01:44;;;;;;;7.87;6.53;;;;;;;20.35;48.25;94507.50;5051538;28;20204;-69
2022/06/17 00:04:28;;;;;;;7.03;6.40;;;;;;;20.72;47.19;94511.94;5051843;28;20235;-69
2022/06/17 00:07:15;;;;;;;9.63;7.47;;;;;;;20.57;47.55;94499.91;5052924;28;20206;-70
2022/06/17 00:09:58;;;;;;;7.80;6.97;;;;;;;20.52;48.37;94495.44;5053829;28;20746;-70
2022/06/17 00:12:43;;;;;;;10.47;7.13;;;;;;;20.54;47.24;94483.41;5050916;28;20196;-70
2022/06/17 00:15:26;;;;;;;8.73;6.43;;;;;;;20.49;47.65;94485.31;5046889;28;20213;-70
2022/06/17 00:18:16;;;;;;;7.17;6.47;;;;;;;20.52;47.38;94494.69;5060682;28;20281;-69
2022/06/17 00:21:00;;;;;;;7.73;6.30;;;;;;;20.54;47.13;94481.28;5056458;28;20201;-70
2022/06/17 00:23:43;;;;;;;9.93;6.70;;;;;;;20.37;47.26;94479.09;5055841;28;20258;-70
2022/06/17 00:26:28;;;;;;;10.13;7.00;;;;;;;20.18;47.74;94476.84;5050599;28;20193;-70
2022/06/17 00:29:14;;;;;;;7.97;7.30;;;;;;;20.13;49.00;94475.91;5058559;28;20574;-70
2022/06/17 00:31:58;;;;;;;7.73;6.97;;;;;;;20.11;48.51;94481.50;5060128;28;20275;-69
2022/06/17 00:34:42;;;;;;;10.07;7.40;;;;;;;19.89;48.47;94482.59;5033773;28;20212;-70
2022/06/17 00:37:26;;;;;;;8.47;7.70;;;;;;;19.33;49.92;94478.56;5067649;28;20205;-70
2022/06/17 00:40:21;;;;;;;8.47;7.63;;;;;;;19.62;49.34;94478.56;5054527;28;20193;-69
2022/06/17 00:43:11;;;;;;;9.67;7.50;;;;;;;19.71;48.73;94474.72;5051045;28;20575;-69
2022/06/17 00:46:07;;;;;;;10.10;7.93;;;;;;;19.59;49.05;94479.84;5048522;28;20260;-70
2022/06/17 00:49:14;;;;;;;12.43;7.87;;;;;;;19.53;49.20;94476.72;5055831;28;20363;-70
2022/06/17 00:52:10;;;;;;;10.20;7.23;;;;;;;19.49;49.30;94485.06;5057435;28;20232;-69
2022/06/17 00:55:03;;;;;;;7.97;7.00;;;;;;;19.44;49.00;94488.31;5054133;28;20232;-70
2022/06/17 00:57:48;;;;;;;9.70;7.50;;;;;;;19.45;49.39;94499.03;5047544;28;20213;-69
2022/06/17 01:00:32;;;;;;;13.43;7.90;;;;;;;19.37;49.84;94499.41;5046491;28;20201;-69
2022/06/17 01:03:37;;;;;;;8.73;7.67;;;;;;;19.38;49.86;94494.44;5058343;28;20279;-69
2022/06/17 01:06:26;;;;;;;9.27;8.43;;;;;;;19.43;50.02;94489.69;5058779;28;20239;-69
2022/06/17 01:12:21;;;;;;;9.80;8.53;;;;;;;19.52;49.32;94502.94;5054007;28;20198;-69
2022/06/17 01:15:07;;;;;;;10.77;9.73;;;;;;;19.55;48.81;94499.56;5046226;28;20208;-70
2022/06/17 01:17:55;;;;;;;9.73;8.73;;;;;;;19.45;48.89;94510.41;5051012;28;21052;-69
2022/06/17 01:20:42;;;;;;;11.03;9.73;;;;;;;19.32;49.13;94503.41;5060885;28;20196;-69
2022/06/17 01:23:27;;;;;;;9.70;8.80;;;;;;;19.29;49.17;94510.38;5053728;28;20735;-69
2022/06/17 01:26:12;;;;;;;10.00;9.10;;;;;;;19.30;49.13;94516.78;5051670;28;20267;-69
2022/06/17 01:28:56;;;;;;;11.87;8.70;;;;;;;19.31;49.41;94518.28;5041479;28;20221;-69
2022/06/17 01:31:47;;;;;;;10.97;8.70;;;;;;;19.31;49.67;94523.94;5055537;28;20209;-69
2022/06/17 01:34:32;;;;;;;9.47;8.60;;;;;;;19.26;49.84;94533.63;5058085;28;20253;-69
2022/06/17 01:37:17;;;;;;;11.73;8.83;;;;;;;19.18;49.94;94538.94;5055687;28;20583;-69
2022/06/17 01:40:01;;;;;;;9.07;8.23;;;;;;;19.34;49.52;94531.19;5053449;28;20193;-69
2022/06/17 01:42:46;;;;;;;14.60;9.00;;;;;;;19.17;49.67;94529.69;5053326;28;21071;-69
2022/06/17 01:45:39;;;;;;;11.47;9.97;;;;;;;19.10;49.80;94527.91;5052248;28;20613;-69
2022/06/17 01:48:26;;;;;;;9.97;8.93;;;;;;;19.02;49.89;94526.75;5056536;28;20224;-69
2022/06/17 01:51:13;;;;;;;11.77;9.00;;;;;;;19.12;49.38;94527.28;5050576;28;20760;-69
2022/06/17 01:54:02;;;;;;;11.93;9.23;;;;;;;19.07;49.48;94529.16;5052799;28;20205;-70
2022/06/17 01:56:48;;;;;;;11.03;9.57;;;;;;;19.20;48.94;94533.34;5048184;28;20252;-69
2022/06/17 01:59:47;;;;;;;12.27;11.07;;;;;;;18.89;49.71;94531.84;5089422;28;20232;-69
2022/06/17 02:02:33;;;;;;;12.13;10.90;;;;;;;18.86;50.05;94544.47;5050760;28;20225;-69
2022/06/17 02:05:19;;;;;;;18.37;12.57;;;;;;;18.76;50.73;94535.44;5058213;28;20201;-69
2022/06/17 02:08:04;;;;;;;14.10;12.43;;;;;;;18.75;50.42;94527.56;5047259;28;20204;-69
2022/06/17 02:10:49;;;;;;;15.20;13.30;;;;;;;18.65;50.70;94524.94;5048218;28;20291;-69
2022/06/17 02:13:34;;;;;;;15.00;13.50;;;;;;;18.53;51.04;94512.94;5050983;28;20254;-69
2022/06/17 02:16:51;;;;;;;13.83;11.70;;;;;;;18.59;50.51;94516.13;5057482;28;20207;-69
2022/06/17 02:19:57;;;;;;;12.70;11.47;;;;;;;18.57;50.28;94508.25;5058773;28;20188;-70
2022/06/17 02:22:42;;;;;;;14.73;13.23;;;;;;;18.49;50.79;94502.13;5058170;28;20232;-69
2022/06/17 02:25:30;;;;;;;17.63;13.67;;;;;;;18.48;50.89;94497.81;5050605;28;20303;-69
2022/06/17 02:28:16;;;;;;;14.10;12.03;;;;;;;18.46;50.62;94506.22;5053292;28;20682;-69
2022/06/17 02:31:02;;;;;;;14.67;12.83;;;;;;;18.47;50.72;94504.13;5046910;28;20211;-69
2022/06/17 02:33:51;;;;;;;13.30;11.20;;;;;;;18.25;51.00;94511.47;5061441;28;20670;-69
2022/06/17 02:36:53;;;;;;;13.57;11.13;;;;;;;18.06;51.24;94510.53;5052575;28;20194;-70
2022/06/17 02:39:42;;;;;;;14.73;12.20;;;;;;;17.88;51.89;94509.56;5047596;28;20205;-70
2022/06/17 02:42:30;;;;;;;15.60;12.63;;;;;;;17.72;52.17;94505.84;5050235;28;20193;-69
2022/06/17 02:45:21;;;;;;;15.43;13.23;;;;;;;17.64;52.63;94500.50;5054659;28;20281;-69
2022/06/17 02:48:33;;;;;;;17.30;14.63;;;;;;;17.64;52.64;94492.00;5058527;28;20197;-70
2022/06/17 02:51:18;;;;;;;22.03;14.83;;;;;;;17.56;52.91;94491.50;5056499;28;20198;-69
2022/06/17 02:54:05;;;;;;;16.20;13.63;;;;;;;17.68;52.71;94488.63;5048889;28;20190;-69
2022/06/17 02:56:53;;;;;;;16.60;14.97;;;;;;;17.76;52.83;94491.91;5049603;28;20224;-70
2022/06/17 02:59:51;;;;;;;23.73;16.40;;;;;;;17.84;52.22;94491.63;5052315;28;20278;-68
2022/06/17 03:02:47;;;;;;;18.60;15.23;;;;;;;17.92;52.20;94492.03;5051691;28;20594;-69
2022/06/17 03:05:35;;;;;;;23.07;16.10;;;;;;;17.72;52.06;94477.50;5056929;28;20233;-69
2022/06/17 03:08:27;;;;;;;20.30;16.33;;;;;;;17.62;52.97;94465.63;5046156;28;20210;-69
2022/06/17 03:11:12;;;;;;;18.10;15.40;;;;;;;17.64;52.92;94469.31;5054423;28;20247;-69
2022/06/17 03:14:04;;;;;;;20.20;17.07;;;;;;;17.67;52.56;94467.31;5049210;28;20197;-69
2022/06/17 03:16:57;;;;;;;21.13;18.40;;;;;;;17.56;53.08;94462.44;5049060;28;20270;-69
2022/06/17 03:19:45;;;;;;;23.03;18.23;;;;;;;17.52;53.04;94462.97;5050915;28;20288;-70
2022/06/17 03:22:30;;;;;;;21.43;17.43;;;;;;;17.60;52.66;94473.97;5061736;28;20669;-69
2022/06/17 03:25:28;;;;;;;20.13;16.57;;;;;;;17.69;52.53;94475.94;5054772;28;20213;-70
2022/06/17 03:28:18;;;;;;;18.93;16.83;;;;;;;17.65;53.71;94481.38;5052917;28;20596;-69
2022/06/17 03:31:28;;;;;;;21.53;17.13;;;;;;;17.76;52.93;94478.47;5051062;28;20559;-69
2022/06/17 03:34:22;;;;;;;18.37;16.37;;;;;;;17.75;52.50;94477.00;5057664;28;20274;-69
2022/06/17 03:37:27;;;;;;;21.50;17.30;;;;;;;17.71;53.30;94484.56;5054244;28;20201;-69
2022/06/17 03:40:20;;;;;;;18.27;16.37;;;;;;;17.75;52.59;94479.09;5055972;28;20201;-69
2022/06/17 03:43:08;;;;;;;20.33;16.70;;;;;;;17.75;52.84;94484.75;5051065;28;20283;-69
2022/06/17 03:46:00;;;;;;;20.40;17.73;;;;;;;17.76;52.97;94486.25;5053714;28;20197;-69
2022/06/17 03:49:12;;;;;;;19.93;15.67;;;;;;;17.83;52.77;94490.88;5055274;28;20261;-69
2022/06/17 03:52:01;;;;;;;20.87;16.97;;;;;;;17.90;52.95;94489.09;5059501;28;20274;-68
2022/06/17 03:54:46;;;;;;;21.80;16.87;;;;;;;18.01;52.76;94500.34;5057163;28;20252;-69
2022/06/17 03:57:31;;;;;;;22.50;17.33;;;;;;;18.03;53.32;94503.25;5047317;28;20201;-69
2022/06/17 04:00:44;;;;;;;22.63;17.33;;;;;;;18.38;52.97;94502.97;5059836;28;20197;-69
2022/06/17 04:03:33;;;;;;;23.77;16.37;;;;;;;18.48;52.66;94506.31;5061483;28;20274;-69
2022/06/17 04:06:31;;;;;;;20.47;17.67;;;;;;;18.61;52.61;94524.75;5057868;28;20208;-69
2022/06/17 04:09:27;;;;;;;19.57;17.47;;;;;;;18.50;54.21;94537.66;5052664;28;20308;-69
2022/06/17 04:12:11;;;;;;;19.23;17.03;;;;;;;18.80;53.90;94544.16;5050433;28;20201;-72
2022/06/17 04:15:16;;;;;;;21.30;17.57;;;;;;;19.08;53.54;94552.63;5055142;28;20205;-73
2022/06/17 04:18:03;;;;;;;17.80;15.90;;;;;;;19.29;52.14;94543.75;5056200;28;20196;-73
2022/06/17 04:20:51;;;;;;;17.80;14.80;;;;;;;19.51;51.86;94559.03;5051036;28;20305;-74
2022/06/17 04:23:36;;;;;;;27.00;14.30;;;;;;;19.59;51.07;94558.72;5059345;28;20193;-73
2022/06/17 04:26:51;;;;;;;15.57;14.07;;;;;;;19.67;50.96;94565.53;5055089;28;20247;-73
2022/06/17 04:29:44;;;;;;;14.50;13.10;;;;;;;19.53;52.65;94559.16;5045576;28;20345;-73
2022/06/17 04:32:32;;;;;;;14.00;12.63;;;;;;;19.49;52.83;94550.44;5057922;28;20215;-73
2022/06/17 04:35:16;;;;;;;13.23;11.87;;;;;;;19.69;51.84;94542.84;5051989;28;20205;-73
2022/06/17 04:38:02;;;;;;;15.87;11.40;;;;;;;19.98;51.31;94547.03;5051881;28;20277;-73
2022/06/17 04:41:15;;;;;;;11.80;10.50;;;;;;;20.13;51.13;94546.28;5056665;28;20553;-73
2022/06/17 04:44:18;;;;;;;13.47;12.27;;;;;;;20.38;51.81;94542.47;5045511;28;20202;-73
2022/06/17 04:47:09;;;;;;;19.40;12.10;;;;;;;20.54;51.03;94543.94;5054337;28;20276;-73
2022/06/17 04:50:10;;;;;;;19.80;11.40;;;;;;;20.68;51.03;94551.59;5050811;28;20298;-73
2022/06/17 04:52:58;;;;;;;11.93;10.63;;;;;;;20.84;50.81;94547.38;5055840;28;20264;-73
2022/06/17 04:56:08;;;;;;;12.43;11.07;;;;;;;21.18;50.65;94550.94;5048430;28;20247;-73
2022/06/17 04:59:16;;;;;;;12.73;10.80;;;;;;;21.32;50.63;94545.84;5054573;28;20197;-72
2022/06/17 05:02:03;;;;;;;10.37;9.43;;;;;;;21.63;50.62;94544.22;5056633;28;20200;-72
2022/06/17 05:05:11;;;;;;;11.43;8.63;;;;;;;21.97;50.00;94557.00;5058598;28;20239;-72
2022/06/17 05:07:56;;;;;;;9.10;8.17;;;;;;;22.38;48.62;94553.56;5052093;28;20194;-72
2022/06/17 05:10:46;;;;;;;8.80;6.93;;;;;;;22.55;47.96;94567.06;5046185;28;20761;-72
2022/06/17 05:13:40;;;;;;;6.33;4.90;;;;;;;22.27;46.58;94574.56;5049842;28;20229;-72
2022/06/17 05:16:24;;;;;;;7.13;4.53;;;;;;;22.61;45.31;94572.25;5057354;28;20236;-72
2022/06/17 05:19:10;;;;;;;5.37;4.60;;;;;;;22.65;44.20;94574.53;5064218;28;20196;-72
2022/06/17 05:21:55;;;;;;;4.83;3.83;;;;;;;22.49;43.85;94586.09;5053894;28;20209;-72
2022/06/17 05:24:43;;;;;;;10.93;3.80;;;;;;;22.94;43.25;94577.06;5052420;28;20243;-72
2022/06/17 05:27:28;;;;;;;15.73;4.53;;;;;;;23.25;43.16;94587.41;5059177;28;20212;-72
2022/06/17 05:30:13;;;;;;;4.63;3.77;;;;;;;23.17;41.75;94592.84;5053396;28;20271;-72
2022/06/17 05:32:58;;;;;;;7.07;3.83;;;;;;;23.55;41.65;94591.34;5052861;28;20208;-72
2022/06/17 05:35:43;;;;;;;4.00;3.70;;;;;;;23.83;40.96;94602.22;5044430;28;20209;-73
2022/06/17 05:38:30;;;;;;;4.40;3.47;;;;;;;23.44;40.01;94595.22;5054521;28;20305;-73
2022/06/17 05:41:17;;;;;;;6.40;3.27;;;;;;;24.14;40.07;94601.81;5047016;28;20282;-72
2022/06/17 05:44:03;;;;;;;3.30;3.00;;;;;;;23.93;40.30;94608.31;5047813;28;20213;-72
2022/06/17 05:46:53;;;;;;;3.27;2.97;;;;;;;24.49;39.00;94606.50;5056152;28;20243;-72
2022/06/17 05:49:41;;;;;;;7.33;3.13;;;;;;;24.21;39.45;94617.06;5051556;28;20221;-73
2022/06/17 05:52:59;;;;;;;5.83;3.40;;;;;;;24.15;39.16;94626.19;5055640;28;20194;-72
2022/06/17 05:56:02;;;;;;;5.23;3.10;;;;;;;23.69;39.86;94629.00;5049000;28;20205;-73
2022/06/17 05:58:46;;;;;;;9.77;3.40;;;;;;;24.19;40.06;94626.34;5053924;28;20229;-73
2022/06/17 06:01:30;;;;;;;4.53;3.17;;;;;;;24.22;38.42;94636.47;5052063;28;20248;-72
2022/06/17 06:04:15;;;;;;;8.87;4.03;;;;;;;24.51;38.12;94633.06;5064551;28;20720;-73
2022/06/17 06:06:59;;;;;;;4.30;2.77;;;;;;;24.75;38.08;94643.81;5051561;28;20212;-72
2022/06/17 06:09:46;;;;;;;7.60;3.00;;;;;;;24.52;37.94;94648.84;5038462;28;20378;-72
2022/06/17 06:15:44;;;;;;;4.60;3.50;;;;;;;24.97;37.62;94658.81;5050840;28;20317;-72
2022/06/17 06:18:45;;;;;;;5.87;3.13;;;;;;;25.08;36.71;94669.16;5049571;28;20301;-73
2022/06/17 06:21:41;;;;;;;4.07;3.43;;;;;;;24.96;37.17;94657.34;5031916;28;20201;-73
2022/06/17 06:24:25;;;;;;;5.93;3.20;;;;;;;25.04;37.20;94666.19;5053554;28;20228;-73
2022/06/17 06:27:09;;;;;;;4.80;3.47;;;;;;;24.92;37.13;94666.56;5050950;28;20283;-72
2022/06/17 06:29:59;;;;;;;5.40;3.03;;;;;;;25.33;36.77;94670.59;5044485;28;20301;-72
2022/06/17 06:33:09;;;;;;;4.83;3.30;;;;;;;25.48;36.71;94668.84;5057431;28;20583;-72
2022/06/17 06:35:53;;;;;;;4.97;2.90;;;;;;;25.32;36.42;94669.84;5054630;28;20227;-72
2022/06/17 06:38:37;;;;;;;6.57;3.40;;;;;;;25.83;36.05;94673.38;5055827;28;20308;-72
2022/06/17 06:41:22;;;;;;;3.30;3.00;;;;;;;26.04;35.70;94678.25;5048875;28;20205;-72
2022/06/17 06:44:07;;;;;;;3.83;3.10;;;;;;;25.85;36.62;94677.03;5048005;28;20592;-71
2022/06/17 06:47:17;;;;;;;9.00;3.03;;;;;;;26.10;35.90;94684.88;5054386;28;20209;-71
2022/06/17 06:50:27;;;;;;;6.40;2.83;;;;;;;26.10;35.60;94679.13;5058619;28;20720;-72
2022/06/17 06:53:13;;;;;;;7.97;3.30;;;;;;;26.48;35.25;94687.22;5047432;28;20313;-72
2022/06/17 06:55:58;;;;;;;7.37;2.80;;;;;;;26.81;35.15;94695.19;5060682;28;20200;-71
2022/06/17 06:58:43;;;;;;;3.80;2.50;;;;;;;27.01;34.06;94700.69;5058637;28;20193;-71
2022/06/17 07:01:27;;;;;;;3.90;2.57;;;;;;;27.24;33.79;94693.25;5052951;28;20202;-71
2022/06/17 07:04:15;;;;;;;4.07;2.40;;;;;;;27.48;32.31;94688.00;5062262;28;20228;-71
2022/06/17 07:06:59;;;;;;;5.13;2.50;;;;;;;27.04;33.26;94687.78;5055588;28;20224;-71
2022/06/17 07:09:43;;;;;;;3.30;2.50;;;;;;;27.64;31.87;94694.09;5047882;28;20279;-71
2022/06/17 07:12:28;;;;;;;7.93;2.60;;;;;;;28.09;31.80;94694.91;5054246;28;20247;-71
2022/06/17 07:15:13;;;;;;;6.03;2.35;;;;;;;28.35;31.37;94698.25;5050814;28;20193;-70
2022/06/17 07:18:15;;;;;;;3.38;2.40;;;;;;;28.44;30.71;94702.03;5058047;28;20240;-70
2022/06/17 07:21:02;;;;;;;4.60;2.78;;;;;;;27.91;31.57;94703.22;5061413;28;20709;-70
2022/06/17 07:23:46;;;;;;;5.72;2.50;;;;;;;28.74;30.42;94701.78;5055414;28;20267;-70
2022/06/17 07:26:30;;;;;;;5.15;2.13;;;;;;;29.03;27.98;94703.66;5046874;28;20271;-70
2022/06/17 07:29:14;;;;;;;3.97;2.50;;;;;;;29.01;29.13;94705.81;5060445;28;20269;-71
2022/06/17 07:31:59;;;;;;;6.57;2.00;;;;;;;29.32;29.19;94704.75;5054749;28;20262;-70
2022/06/17 07:34:43;;;;;;;8.23;2.47;;;;;;;29.52;28.34;94710.09;5054835;28;20252;-70
2022/06/17 07:40:31;;;;;;;3.20;1.98;;;;;;;29.06;27.82;94702.28;5061325;28;20205;-70
2022/06/17 07:43:17;;;;;;;3.97;2.15;;;;;;;29.89;25.71;94711.97;5058122;28;20201;-70
2022/06/17 07:46:03;;;;;;;4.03;2.38;;;;;;;29.73;26.65;94711.78;5053883;28;20247;-70
2022/06/17 07:48:47;;;;;;;6.05;2.40;;;;;;;30.46;26.76;94712.53;5052193;28;20224;-70
2022/06/17 07:51:31;;;;;;;3.45;2.05;;;;;;;30.92;24.52;94715.81;5060748;28;20565;-70
2022/06/17 07:54:15;;;;;;;5.97;2.25;;;;;;;31.22;24.87;94718.22;5051339;28;20233;-70
2022/06/17 07:56:59;;;;;;;7.53;2.08;;;;;;;31.19;25.61;94718.91;5055829;28;20264;-70
2022/06/17 07:59:43;;;;;;;2.05;1.88;;;;;;;32.40;24.08;94716.50;5052893;28;20237;-70
2022/06/17 08:02:27;;;;;;;3.25;2.10;;;;;;;32.67;23.07;94722.31;5047819;28;20274;-69
2022/06/17 08:05:11;;;;;;;5.15;1.88;;;;;;;33.00;22.75;94723.75;5053299;28;20201;-70
2022/06/17 08:07:55;;;;;;;2.85;1.90;;;;;;;32.75;24.31;94716.53;5057022;28;20240;-70
2022/06/17 08:10:40;;;;;;;3.75;2.05;;;;;;;33.60;22.85;94728.00;5051219;28;20244;-70
2022/06/17 08:13:24;;;;;;;3.40;2.17;;;;;;;33.61;23.46;94717.81;5043352;28;21135;-70
2022/06/17 08:16:11;;;;;;;7.25;2.17;;;;;;;33.65;22.67;94723.63;5053187;28;20643;-70
2022/06/17 08:18:55;;;;;;;7.53;2.00;;;;;;;33.24;22.42;94738.28;5062467;28;20197;-70
2022/06/17 08:21:39;;;;;;;3.35;1.83;;;;;;;33.07;23.02;94733.91;5058756;28;20226;-70
2022/06/17 08:24:23;;;;;;;3.00;2.05;;;;;;;33.84;22.89;94727.94;5054040;28;20615;-70
2022/06/17 08:27:07;;;;;;;3.20;1.80;;;;;;;33.41;23.01;94729.50;5060949;28;20212;-70
2022/06/17 08:29:51;;;;;;;4.30;2.28;;;;;;;33.01;22.90;94736.09;5049171;28;20225;-70
2022/06/17 08:32:48;;;;;;;3.83;1.90;;;;;;;33.21;24.23;94741.91;5056793;28;20243;-70
2022/06/17 08:35:36;;;;;;;3.22;1.73;;;;;;;34.05;21.57;94746.00;5059988;28;20683;-70
2022/06/17 08:38:27;;;;;;;2.90;1.95;;;;;;;33.45;23.05;94744.03;5056494;28;20201;-70
2022/06/17 08:41:23;;;;;;;3.80;2.10;;;;;;;33.45;22.53;94741.13;5056813;28;20240;-70
2022/06/17 08:44:33;;;;;;;3.17;1.98;;;;;;;34.21;21.75;94739.41;5049162;28;20229;-70
2022/06/17 08:47:35;;;;;;;3.03;1.70;;;;;;;34.13;21.87;94740.84;5055694;28;20674;-70
2022/06/17 08:50:27;;;;;;;5.00;1.52;;;;;;;33.48;21.07;94745.47;5059383;28;20252;-70
2022/06/17 08:53:19;;;;;;;1.45;1.30;;;;;;;33.68;21.61;94745.41;5050476;28;20260;-70
2022/06/17 08:56:27;;;;;;;1.83;1.40;;;;;;;32.76;23.52;94752.81;5055656;28;20205;-69
2022/06/17 08:59:32;;;;;;;3.42;1.52;;;;;;;34.13;20.90;94752.50;5058034;28;20684;-70
2022/06/17 09:02:45;;;;;;;3.30;1.90;;;;;;;34.54;21.41;94749.38;5053624;28;20254;-70
2022/06/17 09:05:41;;;;;;;4.13;1.85;;;;;;;35.12;20.40;94754.03;5048792;28;20202;-70
2022/06/17 09:08:43;;;;;;;4.93;1.90;;;;;;;34.41;20.23;94759.66;5056061;28;20575;-69
2022/06/17 09:11:39;;;;;;;7.97;1.80;;;;;;;34.01;21.22;94758.38;5049889;28;20213;-70
2022/06/17 09:14:23;;;;;;;2.38;1.30;;;;;;;34.58;19.71;94757.34;5055766;28;20248;-70
2022/06/17 09:17:21;;;;;;;7.97;1.88;;;;;;;33.99;20.63;94755.50;5054615;28;20268;-69
2022/06/17 09:20:08;;;;;;;4.70;1.58;;;;;;;34.63;19.70;94759.50;5060550;28;20290;-69
2022/06/17 09:22:56;;;;;;;2.72;1.73;;;;;;;34.46;20.58;94752.34;5050754;28;20329;-71
2022/06/17 09:25:43;;;;;;;7.47;1.50;;;;;;;35.09;19.78;94752.63;5060466;28;20209;-69
2022/06/17 09:28:46;;;;;;;4.93;1.73;;;;;;;33.89;21.38;94752.63;5053306;28;20208;-69
2022/06/17 09:31:41;;;;;;;4.13;1.42;;;;;;;35.29;19.52;94754.66;5049891;28;20778;-70
2022/06/17 09:34:39;;;;;;;7.35;2.00;;;;;;;35.81;20.04;94752.63;5057374;28;20274;-70
2022/06/17 09:37:57;;;;;;;3.05;1.60;;;;;;;35.77;19.51;94765.09;5056069;28;20198;-69
2022/06/17 09:40:45;;;;;;;3.08;1.42;;;;;;;35.03;20.13;94763.59;5059060;28;20225;-70
2022/06/17 09:43:31;;;;;;;8.52;1.80;;;;;;;35.48;19.71;94746.44;5051443;28;20222;-70
2022/06/17 09:46:31;;;;;;;1.77;1.42;;;;;;;35.88;19.34;94754.00;5050839;28;20197;-69
2022/06/17 09:49:39;;;;;;;5.15;2.00;;;;;;;35.17;19.57;94760.56;5053803;28;20269;-70
2022/06/17 09:52:32;;;;;;;3.20;1.55;;;;;;;35.66;18.65;94760.81;5050123;28;20240;-69
2022/06/17 09:55:25;;;;;;;2.15;1.48;;;;;;;36.38;18.66;94770.91;5050323;28;20264;-71
2022/06/17 09:58:22;;;;;;;2.78;1.90;;;;;;;35.46;18.47;94773.41;5051047;28;20702;-71
2022/06/17 10:01:07;;;;;;;4.28;1.70;;;;;;;36.44;18.12;94767.91;5054369;28;20237;-71
2022/06/17 10:03:52;;;;;;;3.75;1.77;;;;;;;36.07;18.13;94755.22;5047444;28;20655;-71
2022/06/17 10:06:50;;;;;;;3.95;1.75;;;;;;;36.65;16.94;94768.34;5057066;28;20236;-71
2022/06/17 10:09:45;;;;;;;3.17;1.40;;;;;;;37.21;17.62;94760.91;5055551;28;20325;-71
2022/06/17 10:12:56;;;;;;;4.22;1.80;;;;;;;36.52;17.91;94766.34;5050006;28;20224;-71
2022/06/17 10:19:21;;;;;;;3.38;1.60;;;;;;;38.05;17.97;94760.81;5055181;28;20384;-70
2022/06/17 10:22:15;;;;;;;2.70;1.38;;;;;;;37.24;17.54;94776.91;5049369;28;20249;-71
2022/06/17 10:25:24;;;;;;;2.08;1.52;;;;;;;38.22;16.45;94775.09;5047651;28;20344;-70
2022/06/17 10:28:27;;;;;;;1.60;1.40;;;;;;;38.54;16.08;94762.72;5048593;28;20209;-71
2022/06/17 10:31:42;;;;;;;1.80;1.50;;;;;;;38.83;16.27;94760.56;5056216;28;20201;-70
2022/06/17 10:34:45;;;;;;;4.93;1.73;;;;;;;38.85;16.09;94766.38;5073747;28;20198;-69
2022/06/17 10:37:33;;;;;;;2.85;1.38;;;;;;;37.90;17.45;94753.75;5054522;28;20229;-70
2022/06/17 10:40:22;;;;;;;1.73;1.15;;;;;;;39.25;16.39;94752.25;5051671;28;20272;-70
2022/06/17 10:43:12;;;;;;;7.05;1.50;;;;;;;39.59;15.55;94747.69;5058140;28;20197;-69
2022/06/17 10:45:57;;;;;;;1.88;1.35;;;;;;;39.87;15.11;94746.22;5057185;28;20204;-70
2022/06/17 10:48:57;;;;;;;2.55;1.30;;;;;;;40.78;14.81;94741.31;5052683;28;20205;-71
2022/06/17 10:51:43;;;;;;;5.85;1.40;;;;;;;40.15;14.50;94741.75;5058742;28;20205;-73
2022/06/17 10:54:32;;;;;;;1.73;1.23;;;;;;;39.55;16.18;94742.66;5049803;28;20283;-71
2022/06/17 10:57:29;;;;;;;3.80;1.50;;;;;;;39.28;15.56;94744.81;5070709;28;20206;-72
2022/06/17 11:00:25;;;;;;;11.65;1.73;;;;;;;38.42;16.00;94745.38;5059411;28;20266;-70
2022/06/17 11:03:33;;;;;;;3.45;1.40;;;;;;;40.53;16.07;94739.91;5053684;28;20308;-71
2022/06/17 11:06:23;;;;;;;4.63;1.60;;;;;;;40.74;15.54;94747.31;5063021;28;20193;-71
2022/06/17 11:09:19;;;;;;;2.50;1.35;;;;;;;41.28;13.74;94752.22;5047570;28;20226;-71
2022/06/17 11:12:14;;;;;;;3.20;1.48;;;;;;;41.56;13.88;94739.50;5051279;28;20306;-71
2022/06/17 11:15:03;;;;;;;1.75;1.40;;;;;;;41.77;13.71;94746.13;5050382;28;20201;-71
2022/06/17 11:17:51;;;;;;;2.70;1.25;;;;;;;41.35;14.01;94745.34;5059260;28;20206;-71
2022/06/17 11:20:38;;;;;;;7.88;1.50;;;;;;;41.06;15.05;94744.81;5058954;28;20352;-71
2022/06/17 11:23:28;;;;;;;2.80;1.55;;;;;;;43.00;12.58;94754.75;5054933;28;20209;-71
2022/06/17 11:26:20;;;;;;;4.38;1.48;;;;;;;42.25;13.37;94748.81;5058954;28;20562;-70
2022/06/17 11:29:19;;;;;;;5.72;1.30;;;;;;;43.83;12.19;94754.22;5060373;28;20225;-71
2022/06/17 11:32:27;;;;;;;3.20;1.30;;;;;;;44.61;12.19;94747.00;5059216;28;20217;-72
2022/06/17 11:35:25;;;;;;;4.63;1.67;;;;;;;44.64;12.12;94747.63;5052689;28;20274;-72
2022/06/17 11:38:15;;;;;;;2.80;1.50;;;;;;;41.36;13.72;94740.16;5053730;28;20209;-72
2022/06/17 11:41:01;;;;;;;3.17;1.10;;;;;;;43.40;13.07;94747.19;5048062;28;20298;-72
2022/06/17 11:43:45;;;;;;;8.18;1.70;;;;;;;43.49;12.83;94736.47;5048327;28;20213;-72
2022/06/17 11:46:31;;;;;;;2.85;1.42;;;;;;;42.48;12.85;94734.66;5053300;28;20620;-71
2022/06/17 11:49:19;;;;;;;4.30;1.48;;;;;;;42.70;13.60;94742.66;5058510;28;20769;-72
2022/06/17 11:52:08;;;;;;;5.07;1.50;;;;;;;43.22;13.78;94733.19;5051509;28;20224;-71
2022/06/17 11:54:53;;;;;;;5.13;1.38;;;;;;;40.43;14.42;94732.81;5060631;28;20278;-72
2022/06/17 11:57:40;;;;;;;2.55;1.60;;;;;;;43.26;12.75;94727.16;5046288;28;20332;-73
2022/06/17 12:00:39;;;;;;;4.03;1.70;;;;;;;39.69;15.22;94721.00;5058257;28;20670;-72
2022/06/17 12:03:33;;;;;;;2.83;1.45;;;;;;;43.80;13.15;94720.41;5043925;28;20292;-72
2022/06/17 12:06:23;;;;;;;1.77;1.23;;;;;;;45.08;11.73;94730.72;5052752;28;20209;-73
2022/06/17 12:09:31;;;;;;;2.03;1.45;;;;;;;44.72;11.73;94726.56;5048002;28;20221;-73
2022/06/17 12:12:17;;;;;;;1.77;1.10;;;;;;;44.85;12.17;94721.50;5050567;28;20737;-72
2022/06/17 12:15:15;;;;;;;2.15;1.27;;;;;;;44.85;12.54;94724.44;5048092;28;20594;-72
2022/06/17 12:18:01;;;;;;;5.95;1.60;;;;;;;45.55;11.56;94719.53;5038211;28;20194;-73
2022/06/17 12:21:10;;;;;;;2.55;1.35;;;;;;;46.38;11.03;94724.03;5050841;28;20229;-72
2022/06/17 12:24:09;;;;;;;4.57;1.30;;;;;;;44.89;11.29;94718.31;5052185;28;20710;-71
2022/06/17 12:27:22;;;;;;;2.20;1.10;;;;;;;44.79;11.46;94715.88;5047815;28;20310;-72
2022/06/17 12:30:14;;;;;;;2.45;1.20;;;;;;;46.51;11.73;94718.84;5052069;28;20232;-57
2022/06/17 12:33:05;;;;;;;2.10;1.25;;;;;;;45.72;11.14;94711.22;5049461;28;20205;-57
2022/06/17 12:35:56;;;;;;;2.38;1.20;;;;;;;47.14;10.91;94718.31;5049912;28;20579;-57
2022/06/17 12:38:59;;;;;;;5.15;1.27;;;;;;;44.84;11.65;94714.16;5046188;28;20225;-56
2022/06/17 12:41:55;;;;;;;4.32;1.20;;;;;;;44.09;11.71;94693.28;5050690;28;20201;-57
2022/06/17 12:45:17;;;;;;;2.13;1.20;;;;;;;46.79;10.85;94698.06;5050011;28;20988;-57
2022/06/17 12:48:12;;;;;;;1.98;1.00;;;;;;;45.20;10.70;94705.00;5047414;28;20644;-57
2022/06/17 12:54:35;;;;;;;2.58;1.13;;;;;;;46.34;10.43;94706.47;5046547;28;20233;-57
2022/06/17 12:57:33;;;;;;;4.00;1.00;;;;;;;44.95;10.51;94697.31;5050485;28;20197;-57
2022/06/17 13:00:36;;;;;;;2.40;1.27;;;;;;;48.32;9.15;94705.31;5050134;28;20193;-57
2022/06/17 13:03:43;;;;;;;2.83;0.98;;;;;;;46.10;10.76;94701.84;5048581;28;20310;-57
2022/06/17 13:06:48;;;;;;;1.05;0.95;;;;;;;47.47;9.48;94702.97;5046807;28;20205;-57
2022/06/17 13:09:40;;;;;;;2.67;0.95;;;;;;;46.58;9.91;94708.09;5050829;28;20829;-55
2022/06/17 13:12:37;;;;;;;1.83;0.90;;;;;;;47.31;9.28;94701.00;5043908;28;20640;-53
2022/06/17 13:15:28;;;;;;;1.40;0.90;;;;;;;47.68;9.29;94698.81;5046189;28;20197;-56
2022/06/17 13:18:28;;;;;;;2.65;0.98;;;;;;;49.19;8.22;94696.75;5047316;28;20188;-56
2022/06/17 13:21:21;;;;;;;2.00;1.02;;;;;;;49.46;8.49;94696.41;5042763;28;20205;-56
2022/06/17 13:24:11;;;;;;;0.90;0.77;;;;;;;45.73;10.08;94680.06;5050208;28;20240;-55
2022/06/17 13:27:01;;;;;;;1.75;0.80;;;;;;;47.37;9.33;94691.72;5046405;28;20256;-56
2022/06/17 13:30:01;;;;;;;4.53;2.17;;;;;;;46.03;9.83;94694.81;5048267;28;20248;-56
2022/06/17 13:32:49;;;;;;;3.15;1.00;;;;;;;47.68;9.21;94692.88;5045902;28;20247;-56
2022/06/17 13:35:44;;;;;;;4.15;1.02;;;;;;;44.64;10.40;94686.22;5045490;28;20257;-55
2022/06/17 13:38:41;;;;;;;5.15;1.58;;;;;;;48.91;9.07;94705.97;5044179;28;20229;-56
2022/06/17 13:42:04;;;;;;;3.05;1.70;;;;;;;43.33;11.43;94684.03;5042937;28;20299;-56